createdAt,value
2018-06-10T00:02:22.258Z,93640.89
2018-06-10T00:04:50.007Z,93641.08
2018-06-10T00:07:17.749Z,93643.36
2018-06-10T00:09:45.533Z,93650.78
2018-06-10T00:12:13.231Z,93648.12
2018-06-10T00:14:41.003Z,93647.86
2018-06-10T00:17:08.695Z,93640.17
2018-06-10T00:19:36.387Z,93639.91
2018-06-10T00:22:04.118Z,93632.05
2018-06-10T00:24:31.782Z,93625.83
2018-06-10T00:26:59.482Z,93626.17
2018-06-10T00:29:27.235Z,93625.16
2018-06-10T00:31:54.902Z,93623.75
2018-06-10T00:34:22.590Z,93616.29
2018-06-10T00:36:50.319Z,93620.27
2018-06-10T00:39:18.106Z,93617.30
2018-06-10T00:41:45.791Z,93622.11
2018-06-10T00:44:13.526Z,93614.11
2018-06-10T00:46:41.187Z,93611.45
2018-06-10T00:49:08.876Z,93612.52
2018-06-10T00:51:36.603Z,93613.69
2018-06-10T00:54:04.630Z,93610.84
2018-06-10T00:56:38.064Z,93613.90
2018-06-10T00:59:06.762Z,93610.67
2018-06-10T01:01:34.523Z,93615.25
2018-06-10T01:04:02.279Z,93620.12
2018-06-10T01:06:29.993Z,93618.80
2018-06-10T01:08:57.733Z,93618.48
2018-06-10T01:11:25.462Z,93617.59
2018-06-10T01:13:53.194Z,93610.30
2018-06-10T01:16:20.830Z,93607.15
2018-06-10T01:18:48.589Z,93605.86
2018-06-10T01:21:16.298Z,93601.75
2018-06-10T01:23:44.104Z,93602.47
2018-06-10T01:26:11.892Z,93600.85
2018-06-10T01:28:39.569Z,93598.12
2018-06-10T01:31:07.243Z,93598.66
2018-06-10T01:33:34.985Z,93594.80
2018-06-10T01:36:02.667Z,93595.17
2018-06-10T01:38:30.358Z,93596.59
2018-06-10T01:40:58.075Z,93591.86
2018-06-10T01:43:25.745Z,93588.17
2018-06-10T01:45:53.435Z,93590.28
2018-06-10T01:48:21.175Z,93587.89
2018-06-10T01:50:48.875Z,93588.23
2018-06-10T01:53:16.534Z,93590.53
2018-06-10T01:55:44.209Z,93583.25
2018-06-10T01:58:11.858Z,93579.16
2018-06-10T02:00:39.538Z,93576.91
2018-06-10T02:03:07.226Z,93573.60
2018-06-10T02:05:34.894Z,93577.73
2018-06-10T02:08:02.592Z,93572.30
2018-06-10T02:10:30.285Z,93567.92
2018-06-10T02:12:58.006Z,93573.80
2018-06-10T02:15:25.711Z,93580.22
2018-06-10T02:17:53.443Z,93571.92
2018-06-10T02:20:21.092Z,93569.64
2018-06-10T02:22:48.837Z,93572.08
2018-06-10T02:25:16.547Z,93569.81
2018-06-10T02:27:44.255Z,93566.48
2018-06-10T02:30:11.906Z,93568.84
2018-06-10T02:32:39.601Z,93577.53
2018-06-10T02:35:07.281Z,93568.94
2018-06-10T02:37:34.991Z,93565.74
2018-06-10T02:40:02.690Z,93564.16
2018-06-10T02:42:30.350Z,93565.94
2018-06-10T02:44:58.075Z,93559.89
2018-06-10T02:47:25.754Z,93559.34
2018-06-10T02:49:53.430Z,93557.62
2018-06-10T02:52:21.135Z,93556.00
2018-06-10T02:54:48.803Z,93557.36
2018-06-10T02:57:16.555Z,93559.88
2018-06-10T02:59:44.240Z,93555.24
2018-06-10T03:02:11.949Z,93560.70
2018-06-10T03:04:39.696Z,93552.37
2018-06-10T03:07:07.342Z,93550.96
2018-06-10T03:09:35.013Z,93541.38
2018-06-10T03:12:02.756Z,93548.31
2018-06-10T03:14:31.578Z,93541.53
2018-06-10T03:16:59.233Z,93541.05
2018-06-10T03:19:26.930Z,93538.30
2018-06-10T03:21:54.658Z,93532.72
2018-06-10T03:24:22.347Z,93538.76
2018-06-10T03:26:50.067Z,93537.17
2018-06-10T03:29:17.819Z,93534.53
2018-06-10T03:31:45.539Z,93540.28
2018-06-10T03:34:13.198Z,93545.30
2018-06-10T03:36:40.887Z,93546.47
2018-06-10T03:39:08.571Z,93549.47
2018-06-10T03:41:36.230Z,93544.34
2018-06-10T03:44:03.946Z,93553.23
2018-06-10T03:46:31.631Z,93537.73
2018-06-10T03:48:59.294Z,93539.93
2018-06-10T03:51:26.946Z,93536.16
2018-06-10T03:53:54.697Z,93533.60
2018-06-10T03:56:22.382Z,93535.30
2018-06-10T03:58:50.127Z,93533.69
2018-06-10T04:01:17.809Z,93533.69
2018-06-10T04:03:45.550Z,93530.23
2018-06-10T04:06:13.231Z,93537.66
2018-06-10T04:08:40.938Z,93528.30
2018-06-10T04:11:08.705Z,93527.81
2018-06-10T04:13:36.439Z,93540.11
2018-06-10T04:16:04.173Z,93536.16
2018-06-10T04:18:31.890Z,93538.03
2018-06-10T04:20:59.631Z,93544.08
2018-06-10T04:23:27.328Z,93548.02
2018-06-10T04:25:55.018Z,93543.66
2018-06-10T04:28:22.749Z,93538.11
2018-06-10T04:30:50.414Z,93535.01
2018-06-10T04:33:18.105Z,93539.51
2018-06-10T04:35:45.774Z,93538.11
2018-06-10T04:38:13.498Z,93535.86
2018-06-10T04:40:41.158Z,93538.01
2018-06-10T04:43:08.887Z,93531.03
2018-06-10T04:45:36.594Z,93531.55
2018-06-10T04:48:04.341Z,93533.52
2018-06-10T04:50:32.015Z,93527.16
2018-06-10T04:52:59.707Z,93532.48
2018-06-10T04:55:27.346Z,93529.28
2018-06-10T04:57:55.061Z,93535.10
2018-06-10T05:00:22.791Z,93535.71
2018-06-10T05:02:50.466Z,93541.67
2018-06-10T05:05:18.129Z,93539.64
2018-06-10T05:07:45.828Z,93543.39
2018-06-10T05:10:13.518Z,93541.73
2018-06-10T05:12:41.207Z,93546.34
2018-06-10T05:15:08.986Z,93543.80
2018-06-10T05:17:36.678Z,93539.61
2018-06-10T05:20:04.507Z,93542.36
2018-06-10T05:22:32.124Z,93542.75
2018-06-10T05:24:59.782Z,93542.55
2018-06-10T05:27:27.502Z,93545.31
2018-06-10T05:29:55.190Z,93550.99
2018-06-10T05:32:22.874Z,93542.73
2018-06-10T05:34:50.613Z,93545.91
2018-06-10T05:37:18.309Z,93543.76
2018-06-10T05:39:46.022Z,93540.81
2018-06-10T05:42:13.726Z,93543.20
2018-06-10T05:44:41.415Z,93542.34
2018-06-10T05:47:09.117Z,93553.22
2018-06-10T05:49:36.809Z,93556.83
2018-06-10T05:52:04.577Z,93557.77
2018-06-10T05:54:32.237Z,93553.55
2018-06-10T05:56:59.972Z,93554.52
2018-06-10T05:59:27.701Z,93560.19
2018-06-10T06:01:55.453Z,93561.27
2018-06-10T06:04:23.187Z,93566.00
2018-06-10T06:06:50.893Z,93567.67
2018-06-10T06:09:18.587Z,93568.00
2018-06-10T06:11:46.282Z,93570.34
2018-06-10T06:14:14.014Z,93573.56
2018-06-10T06:16:41.688Z,93573.48
2018-06-10T06:19:09.389Z,93575.64
2018-06-10T06:21:37.100Z,93576.30
2018-06-10T06:24:04.806Z,93582.09
2018-06-10T06:26:32.542Z,93581.88
2018-06-10T06:29:00.498Z,93576.03
2018-06-10T06:31:28.267Z,93582.03
2018-06-10T06:33:56.023Z,93579.88
2018-06-10T06:36:23.747Z,93577.41
2018-06-10T06:38:51.454Z,93572.48
2018-06-10T06:41:19.122Z,93574.48
2018-06-10T06:43:47.149Z,93579.55
2018-06-10T06:46:14.842Z,93578.52
2018-06-10T06:48:42.601Z,93572.05
2018-06-10T06:51:10.329Z,93578.82
2018-06-10T06:53:38.080Z,93594.91
2018-06-10T06:56:05.843Z,93593.71
2018-06-10T06:58:33.538Z,93595.33
2018-06-10T07:01:01.237Z,93600.55
2018-06-10T07:03:28.929Z,93604.78
2018-06-10T07:05:56.638Z,93594.62
2018-06-10T07:08:24.361Z,93593.73
2018-06-10T07:10:52.035Z,93593.72
2018-06-10T07:13:19.828Z,93590.92
2018-06-10T07:15:47.604Z,93592.47
2018-06-10T07:18:15.303Z,93597.19
2018-06-10T07:20:43.005Z,93595.60
2018-06-10T07:23:10.728Z,93590.34
2018-06-10T07:25:38.479Z,93593.30
2018-06-10T07:28:06.344Z,93595.78
2018-06-10T07:30:34.278Z,93599.98
2018-06-10T07:33:01.995Z,93597.78
2018-06-10T07:35:29.660Z,93597.14
2018-06-10T07:37:57.388Z,93600.43
2018-06-10T07:40:25.152Z,93598.81
2018-06-10T07:42:52.824Z,93586.47
2018-06-10T07:45:20.545Z,93589.84
2018-06-10T07:47:48.217Z,93595.72
2018-06-10T07:50:15.901Z,93594.36
2018-06-10T07:52:43.590Z,93595.52
2018-06-10T07:55:11.284Z,93598.80
2018-06-10T07:57:38.971Z,93593.11
2018-06-10T08:00:06.727Z,93596.86
2018-06-10T08:02:34.429Z,93598.48
2018-06-10T08:05:02.187Z,93594.50
2018-06-10T08:07:30.305Z,93590.22
2018-06-10T08:09:57.995Z,93592.34
2018-06-10T08:12:25.676Z,93590.87
2018-06-10T08:14:53.497Z,93584.19
2018-06-10T08:17:21.234Z,93587.88
2018-06-10T08:19:48.930Z,93580.44
2018-06-10T08:22:16.671Z,93581.84
2018-06-10T08:24:44.347Z,93577.13
2018-06-10T08:27:12.049Z,93588.77
2018-06-10T08:29:39.742Z,93589.00
2018-06-10T08:32:07.432Z,93586.93
2018-06-10T08:34:35.162Z,93586.45
2018-06-10T08:37:02.954Z,93589.64
2018-06-10T08:39:30.668Z,93585.11
2018-06-10T08:41:58.379Z,93587.38
2018-06-10T08:44:26.161Z,93577.11
2018-06-10T08:46:53.883Z,93573.64
2018-06-10T08:49:21.750Z,93576.64
2018-06-10T08:51:49.419Z,93577.20
2018-06-10T08:54:17.310Z,93581.55
2018-06-10T08:56:44.979Z,93584.94
2018-06-10T08:59:12.650Z,93584.72
2018-06-10T09:01:40.343Z,93591.96
2018-06-10T09:04:08.028Z,93596.21
2018-06-10T09:06:35.743Z,93588.12
2018-06-10T09:09:05.615Z,93591.75
2018-06-10T09:11:33.315Z,93587.41
2018-06-10T09:14:01.069Z,93577.45
2018-06-10T09:16:28.784Z,93574.78
2018-06-10T09:18:56.563Z,93580.30
2018-06-10T09:21:24.238Z,93587.78
2018-06-10T09:23:51.968Z,93585.31
2018-06-10T09:26:19.666Z,93587.27
2018-06-10T09:28:47.350Z,93591.70
2018-06-10T09:31:15.043Z,93590.42
2018-06-10T09:33:42.832Z,93589.76
2018-06-10T09:36:10.553Z,93589.27
2018-06-10T09:38:38.250Z,93583.92
2018-06-10T09:41:05.995Z,93580.83
2018-06-10T09:43:33.701Z,93576.94
2018-06-10T09:46:01.419Z,93568.13
2018-06-10T09:48:29.100Z,93568.44
2018-06-10T09:50:57.857Z,93571.05
2018-06-10T09:53:25.545Z,93572.27
2018-06-10T09:55:53.254Z,93567.81
2018-06-10T09:58:20.963Z,93561.73
2018-06-10T10:00:48.677Z,93560.41
2018-06-10T10:03:16.391Z,93553.83
2018-06-10T10:05:44.099Z,93567.44
2018-06-10T10:08:11.778Z,93562.80
2018-06-10T10:10:39.425Z,93562.22
2018-06-10T10:13:07.131Z,93569.19
2018-06-10T10:15:35.019Z,93563.48
2018-06-10T10:18:02.844Z,93556.09
2018-06-10T10:20:30.506Z,93552.80
2018-06-10T10:22:58.118Z,93555.91
2018-06-10T10:25:26.690Z,93552.00
2018-06-10T10:27:54.393Z,93548.21
2018-06-10T10:30:22.093Z,93549.20
2018-06-10T10:32:50.240Z,93547.97
2018-06-10T10:35:17.921Z,93545.04
2018-06-10T10:37:45.640Z,93545.42
2018-06-10T10:40:13.346Z,93549.73
2018-06-10T10:42:41.019Z,93541.87
2018-06-10T10:45:08.645Z,93534.33
2018-06-10T10:47:36.341Z,93533.11
2018-06-10T10:50:04.101Z,93535.89
2018-06-10T10:52:31.790Z,93533.80
2018-06-10T10:54:59.436Z,93532.89
2018-06-10T10:57:27.100Z,93526.42
2018-06-10T10:59:54.746Z,93527.65
2018-06-10T11:02:22.460Z,93530.23
2018-06-10T11:04:50.155Z,93525.28
2018-06-10T11:07:17.769Z,93524.02
2018-06-10T11:09:45.491Z,93522.11
2018-06-10T11:12:13.283Z,93523.85
2018-06-10T11:14:41.002Z,93523.74
2018-06-10T11:17:08.779Z,93523.80
2018-06-10T11:19:36.462Z,93521.92
2018-06-10T11:22:04.124Z,93526.20
2018-06-10T11:24:31.766Z,93529.37
2018-06-10T11:26:59.505Z,93523.05
2018-06-10T11:29:27.251Z,93514.65
2018-06-10T11:31:54.918Z,93514.89
2018-06-10T11:34:22.604Z,93505.35
2018-06-10T11:36:50.266Z,93509.11
2018-06-10T11:39:17.930Z,93506.46
2018-06-10T11:41:45.720Z,93502.66
2018-06-10T11:44:13.413Z,93497.08
2018-06-10T11:46:41.126Z,93502.25
2018-06-10T11:49:08.781Z,93500.29
2018-06-10T11:51:36.681Z,93505.61
2018-06-10T11:54:04.455Z,93498.91
2018-06-10T11:56:32.118Z,93494.88
2018-06-10T11:58:59.823Z,93495.02
2018-06-10T12:01:27.486Z,93495.73
2018-06-10T12:03:55.246Z,93500.54
2018-06-10T12:06:22.974Z,93494.34
2018-06-10T12:08:50.603Z,93491.73
2018-06-10T12:11:18.278Z,93496.52
2018-06-10T12:13:46.037Z,93493.09
2018-06-10T12:16:13.784Z,93488.01
2018-06-10T12:18:41.506Z,93480.42
2018-06-10T12:21:09.157Z,93477.78
2018-06-10T12:23:36.824Z,93482.00
2018-06-10T12:26:04.516Z,93477.61
2018-06-10T12:28:32.218Z,93485.67
2018-06-10T12:30:59.910Z,93485.12
2018-06-10T12:33:27.578Z,93482.09
2018-06-10T12:35:55.230Z,93484.31
2018-06-10T12:38:22.867Z,93487.08
2018-06-10T12:40:50.578Z,93477.46
2018-06-10T12:43:18.300Z,93480.41
2018-06-10T12:45:46.015Z,93479.75
2018-06-10T12:48:13.710Z,93479.31
2018-06-10T12:50:41.658Z,93490.03
2018-06-10T12:53:09.357Z,93488.96
2018-06-10T12:55:37.067Z,93490.80
2018-06-10T12:58:05.221Z,93489.79
2018-06-10T13:00:32.989Z,93485.28
2018-06-10T13:03:00.757Z,93493.37
2018-06-10T13:05:28.496Z,93498.77
2018-06-10T13:07:56.206Z,93497.91
2018-06-10T13:10:23.958Z,93497.20
2018-06-10T13:12:51.690Z,93509.70
2018-06-10T13:15:19.497Z,93516.33
2018-06-10T13:17:47.270Z,93527.39
2018-06-10T13:20:14.957Z,93531.56
2018-06-10T13:22:42.680Z,93549.70
2018-06-10T13:25:10.423Z,93551.71
2018-06-10T13:27:38.205Z,93549.91
2018-06-10T13:30:05.935Z,93537.39
2018-06-10T13:32:33.690Z,93557.54
2018-06-10T13:35:01.435Z,93539.77
2018-06-10T13:37:29.156Z,93553.39
2018-06-10T13:39:56.974Z,93560.34
2018-06-10T13:42:24.677Z,93552.56
2018-06-10T13:44:52.387Z,93555.00
2018-06-10T13:47:20.124Z,93557.66
2018-06-10T13:49:47.820Z,93559.78
2018-06-10T13:52:15.533Z,93555.51
2018-06-10T13:54:43.225Z,93545.03
2018-06-10T13:57:10.926Z,93549.00
2018-06-10T13:59:38.709Z,93548.38
2018-06-10T14:02:06.475Z,93539.74
2018-06-10T14:04:34.190Z,93541.11
2018-06-10T14:07:01.989Z,93542.50
2018-06-10T14:09:29.739Z,93538.02
2018-06-10T14:11:57.456Z,93538.36
2018-06-10T14:14:25.323Z,93534.11
2018-06-10T14:16:53.117Z,93524.97
2018-06-10T14:19:20.795Z,93532.14
2018-06-10T14:21:48.567Z,93525.62
2018-06-10T14:24:17.103Z,93524.82
2018-06-10T14:26:44.822Z,93517.90
2018-06-10T14:29:12.582Z,93525.92
2018-06-10T14:31:40.270Z,93537.66
2018-06-10T14:34:08.123Z,93530.00
2018-06-10T14:36:35.857Z,93530.67
2018-06-10T14:39:05.599Z,93527.73
2018-06-10T14:41:33.328Z,93531.27
2018-06-10T14:44:01.171Z,93525.65
2018-06-10T14:46:28.925Z,93526.42
2018-06-10T14:48:57.101Z,93520.55
2018-06-10T14:51:24.818Z,93522.98
2018-06-10T14:53:52.506Z,93521.13
2018-06-10T14:56:20.226Z,93521.64
2018-06-10T14:58:47.915Z,93513.29
2018-06-10T15:01:15.676Z,93501.79
2018-06-10T15:03:43.402Z,93505.16
2018-06-10T15:06:11.235Z,93508.83
2018-06-10T15:08:38.969Z,93507.91
2018-06-10T15:11:06.686Z,93502.23
2018-06-10T15:13:34.646Z,93502.23
2018-06-10T15:16:02.346Z,93499.47
2018-06-10T15:18:30.054Z,93484.63
2018-06-10T15:20:57.881Z,93488.21
2018-06-10T15:23:25.581Z,93492.44
2018-06-10T15:25:53.314Z,93485.89
2018-06-10T15:28:21.022Z,93478.96
2018-06-10T15:30:48.774Z,93465.30
2018-06-10T15:33:16.858Z,93465.00
2018-06-10T15:35:44.562Z,93463.44
2018-06-10T15:38:12.266Z,93464.41
2018-06-10T15:40:40.003Z,93457.52
2018-06-10T15:43:07.739Z,93457.58
2018-06-10T15:45:35.512Z,93438.81
2018-06-10T15:48:03.242Z,93439.42
2018-06-10T15:50:30.968Z,93437.48
2018-06-10T15:52:58.667Z,93433.45
2018-06-10T15:55:26.480Z,93438.67
2018-06-10T15:57:54.191Z,93444.70
2018-06-10T16:00:21.861Z,93441.92
2018-06-10T16:02:49.578Z,93447.63
2018-06-10T16:05:17.323Z,93447.47
2018-06-10T16:07:45.041Z,93453.52
2018-06-10T16:10:12.819Z,93447.50
2018-06-10T16:12:40.565Z,93447.84
2018-06-10T16:15:08.263Z,93446.23
2018-06-10T16:17:36.044Z,93444.78
2018-06-10T16:20:03.756Z,93448.11
2018-06-10T16:22:31.505Z,93446.13
2018-06-10T16:24:59.238Z,93441.14
2018-06-10T16:27:26.935Z,93443.26
2018-06-10T16:29:54.618Z,93437.56
2018-06-10T16:32:22.388Z,93441.02
2018-06-10T16:34:50.103Z,93443.16
2018-06-10T16:37:17.879Z,93437.74
2018-06-10T16:39:45.590Z,93438.01
2018-06-10T16:42:13.354Z,93439.14
2018-06-10T16:44:41.116Z,93436.38
2018-06-10T16:47:08.886Z,93434.98
2018-06-10T16:49:36.606Z,93441.84
2018-06-10T16:52:04.295Z,93446.63
2018-06-10T16:54:32.055Z,93441.75
2018-06-10T16:56:59.823Z,93445.08
2018-06-10T16:59:27.578Z,93447.27
2018-06-10T17:01:55.305Z,93451.00
2018-06-10T17:04:23.089Z,93455.48
2018-06-10T17:06:50.786Z,93454.73
2018-06-10T17:09:18.457Z,93453.00
2018-06-10T17:11:46.182Z,93444.33
2018-06-10T17:14:13.918Z,93446.30
2018-06-10T17:16:41.642Z,93453.08
2018-06-10T17:19:09.368Z,93450.72
2018-06-10T17:21:37.080Z,93451.30
2018-06-10T17:24:04.765Z,93446.72
2018-06-10T17:26:32.466Z,93445.45
2018-06-10T17:29:00.199Z,93458.92
2018-06-10T17:31:27.954Z,93450.53
2018-06-10T17:33:55.706Z,93456.85
2018-06-10T17:36:23.470Z,93449.61
2018-06-10T17:38:51.192Z,93453.09
2018-06-10T17:41:18.985Z,93451.00
2018-06-10T17:43:46.898Z,93454.06
2018-06-10T17:46:14.594Z,93448.03
2018-06-10T17:48:42.328Z,93448.92
2018-06-10T17:51:10.054Z,93455.28
2018-06-10T17:53:37.799Z,93457.38
2018-06-10T17:56:05.484Z,93447.73
2018-06-10T17:58:33.176Z,93453.89
2018-06-10T18:01:00.879Z,93444.80
2018-06-10T18:03:28.611Z,93451.06
2018-06-10T18:05:56.308Z,93444.59
2018-06-10T18:08:24.027Z,93443.72
2018-06-10T18:10:51.915Z,93440.38
2018-06-10T18:13:19.600Z,93441.56
2018-06-10T18:15:47.330Z,93427.11
2018-06-10T18:18:15.058Z,93430.45
2018-06-10T18:20:42.766Z,93427.84
2018-06-10T18:23:10.571Z,93423.68
2018-06-10T18:25:38.324Z,93429.81
2018-06-10T18:28:06.087Z,93435.16
2018-06-10T18:30:33.799Z,93428.48
2018-06-10T18:33:01.493Z,93427.88
2018-06-10T18:35:29.315Z,93418.16
2018-06-10T18:37:57.087Z,93427.27
2018-06-10T18:40:24.806Z,93432.95
2018-06-10T18:42:52.590Z,93437.91
2018-06-10T18:45:20.309Z,93433.11
2018-06-10T18:47:48.006Z,93444.44
2018-06-10T18:50:15.715Z,93440.45
2018-06-10T18:52:43.428Z,93440.73
2018-06-10T18:55:11.188Z,93446.92
2018-06-10T18:57:38.914Z,93448.30
2018-06-10T19:00:06.646Z,93451.66
2018-06-10T19:02:34.362Z,93445.55
2018-06-10T19:05:02.157Z,93448.30
2018-06-10T19:07:29.903Z,93452.92
2018-06-10T19:09:57.645Z,93453.28
2018-06-10T19:12:25.429Z,93458.16
2018-06-10T19:14:53.528Z,93459.52
2018-06-10T19:17:21.277Z,93464.61
2018-06-10T19:19:48.980Z,93460.92
2018-06-10T19:22:16.690Z,93466.30
2018-06-10T19:24:44.384Z,93470.06
2018-06-10T19:27:12.135Z,93473.05
2018-06-10T19:29:39.859Z,93465.56
2018-06-10T19:32:07.605Z,93470.09
2018-06-10T19:34:35.298Z,93474.91
2018-06-10T19:37:02.989Z,93479.46
2018-06-10T19:39:30.711Z,93480.52
2018-06-10T19:41:58.431Z,93480.52
2018-06-10T19:44:26.195Z,93484.01
2018-06-10T19:46:53.858Z,93494.16
2018-06-10T19:49:21.601Z,93498.42
2018-06-10T19:51:49.361Z,93499.48
2018-06-10T19:54:17.058Z,93495.20
2018-06-10T19:56:44.841Z,93494.67
2018-06-10T19:59:12.654Z,93488.80
2018-06-10T20:01:40.563Z,93501.58
2018-06-10T20:04:08.305Z,93501.84
2018-06-10T20:06:36.023Z,93502.34
2018-06-10T20:09:05.638Z,93513.47
2018-06-10T20:11:33.458Z,93510.53
2018-06-10T20:14:01.211Z,93512.00
2018-06-10T20:16:28.906Z,93513.05
2018-06-10T20:18:56.646Z,93517.44
2018-06-10T20:21:24.367Z,93528.88
2018-06-10T20:23:52.087Z,93521.05
2018-06-10T20:26:20.172Z,93522.61
2018-06-10T20:28:47.896Z,93522.87
2018-06-10T20:31:15.607Z,93521.47
2018-06-10T20:33:43.350Z,93517.17
2018-06-10T20:36:11.086Z,93516.63
2018-06-10T20:38:38.772Z,93523.58
2018-06-10T20:41:06.521Z,93528.41
2018-06-10T20:43:34.226Z,93530.01
2018-06-10T20:46:01.952Z,93532.67
2018-06-10T20:48:29.726Z,93536.61
2018-06-10T20:50:57.387Z,93536.11
2018-06-10T20:53:25.107Z,93538.47
2018-06-10T20:55:52.811Z,93541.69
2018-06-10T20:58:20.535Z,93540.11
2018-06-10T21:00:48.267Z,93545.10
2018-06-10T21:03:16.079Z,93548.62
2018-06-10T21:05:43.785Z,93545.98
2018-06-10T21:08:11.507Z,93551.56
2018-06-10T21:10:39.231Z,93551.31
2018-06-10T21:13:06.959Z,93558.14
2018-06-10T21:15:34.700Z,93561.88
2018-06-10T21:18:02.371Z,93557.64
2018-06-10T21:20:30.122Z,93559.22
2018-06-10T21:22:57.810Z,93555.75
2018-06-10T21:25:25.575Z,93555.70
2018-06-10T21:27:53.267Z,93551.61
2018-06-10T21:30:21.038Z,93562.43
2018-06-10T21:32:48.805Z,93565.27
2018-06-10T21:35:16.569Z,93559.91
2018-06-10T21:37:44.354Z,93565.44
2018-06-10T21:40:12.037Z,93569.95
2018-06-10T21:42:39.718Z,93565.61
2018-06-10T21:45:07.478Z,93567.13
2018-06-10T21:47:35.324Z,93563.95
2018-06-10T21:50:03.111Z,93555.37
2018-06-10T21:52:30.792Z,93554.88
2018-06-10T21:54:58.560Z,93553.27
2018-06-10T21:57:26.310Z,93552.11
2018-06-10T21:59:54.043Z,93553.19
2018-06-10T22:02:21.763Z,93554.99
2018-06-10T22:04:49.487Z,93554.95
2018-06-10T22:07:17.177Z,93562.55
2018-06-10T22:09:44.892Z,93564.59
2018-06-10T22:12:12.610Z,93566.83
2018-06-10T22:14:40.283Z,93569.00
2018-06-10T22:17:07.984Z,93567.43
2018-06-10T22:19:35.664Z,93565.54
2018-06-10T22:22:03.342Z,93576.36
2018-06-10T22:24:31.064Z,93569.48
2018-06-10T22:26:58.849Z,93569.81
2018-06-10T22:29:26.584Z,93567.97
2018-06-10T22:31:54.234Z,93565.77
2018-06-10T22:34:21.940Z,93559.66
2018-06-10T22:36:49.631Z,93553.77
2018-06-10T22:39:17.313Z,93558.95
2018-06-10T22:41:44.978Z,93554.91
2018-06-10T22:44:12.660Z,93553.45
2018-06-10T22:46:40.375Z,93547.37
2018-06-10T22:49:08.069Z,93541.39
2018-06-10T22:51:35.755Z,93547.45
2018-06-10T22:54:09.284Z,93545.33
2018-06-10T22:56:37.047Z,93541.58
2018-06-10T22:59:04.771Z,93547.41
2018-06-10T23:01:32.482Z,93550.34
2018-06-10T23:04:00.260Z,93551.69
2018-06-10T23:06:27.940Z,93543.36
2018-06-10T23:08:55.627Z,93549.78
2018-06-10T23:11:23.291Z,93547.06
2018-06-10T23:13:50.995Z,93545.91
2018-06-10T23:16:18.638Z,93552.80
2018-06-10T23:18:46.304Z,93543.56
2018-06-10T23:21:13.982Z,93540.37
2018-06-10T23:23:41.635Z,93540.14
2018-06-10T23:26:09.408Z,93549.55
2018-06-10T23:28:37.215Z,93543.96
2018-06-10T23:31:04.906Z,93540.73
2018-06-10T23:33:32.582Z,93539.05
2018-06-10T23:36:00.298Z,93539.84
2018-06-10T23:38:27.977Z,93531.88
2018-06-10T23:40:55.640Z,93528.25
2018-06-10T23:43:23.362Z,93537.42
2018-06-10T23:45:51.076Z,93535.52
2018-06-10T23:48:18.786Z,93537.09
2018-06-10T23:50:46.477Z,93538.92
2018-06-10T23:53:14.176Z,93529.77
2018-06-10T23:55:41.832Z,93527.45
2018-06-10T23:58:09.746Z,93523.05
